Usace Mobjack — AWEI — position and weather

sailwx.info

Track history (hours):
 
Tides and Currents Weather Stations Pressure Air Temp Water Temp Dewpoint Dewpoint Depression Visibility Wind Speed Wind Dir Waves Ship Positions

Usace Mobjack

Last reported at 2018-Jan-19 20:05 UTC. Time now 2018-Jan-21 20:27 UTC.
Position N 36°51' W 076°18'.

Length 20 m; draft 2.3 m.

Type: . MMSI: 366999273.

Date/timePositionNaut miles runAvg speedWind from/ knotsBaromVisibWave heightAir tempDewpointWater temp
2018-Jan-19 20:05N 36°51' W 076°18'0 4.8
2018-Jan-19 20:00N 36°52' W 076°19'3 2.8
2018-Jan-19 19:02N 36°54' W 076°21'0 0.5
2018-Jan-19 19:00N 36°54' W 076°21'0 0.0
2018-Jan-19 18:21N 36°54' W 076°21'3 7.6
2018-Jan-19 17:59N 36°52' W 076°19'0 0.7
2018-Jan-19 17:30N 36°51' W 076°18'0 0.0
2018-Jan-19 17:00N 36°51' W 076°18'0 0.5
2018-Jan-19 16:30N 36°51' W 076°19'1 3.0
2018-Jan-19 16:00N 36°50' W 076°18'0 0.7
2018-Jan-19 15:30N 36°50' W 076°18'1 2.2
2018-Jan-19 15:00N 36°51' W 076°18'1 1.7
2018-Jan-19 14:30N 36°51' W 076°18'0 0.0
2018-Jan-19 14:00N 36°51' W 076°18'0 0.0
2018-Jan-19 13:30N 36°51' W 076°18'0 0.0
2018-Jan-19 13:00N 36°51' W 076°18'0 0.0
2018-Jan-19 12:30N 36°51' W 076°18'  
2018-Jan-12 14:59N 36°51' W 076°18'0 0.0
2018-Jan-12 13:29N 36°51' W 076°18'0 0.0
2018-Jan-12 12:50N 36°51' W 076°18'0 0.0
2018-Jan-12 12:26N 36°51' W 076°18'0 0.0
2018-Jan-12 11:56N 36°51' W 076°18'0 0.0
2018-Jan-12 11:20N 36°51' W 076°18'0 0.0
2018-Jan-12 10:56N 36°51' W 076°18'0 0.0
2018-Jan-12 10:26N 36°51' W 076°18'0 0.0
2018-Jan-12 09:50N 36°51' W 076°18'0 0.0
2018-Jan-12 09:26N 36°51' W 076°18'0 0.0
2018-Jan-12 08:50N 36°51' W 076°18'0 0.0
2018-Jan-12 08:20N 36°51' W 076°18'0 0.0
2018-Jan-12 07:53N 36°51' W 076°18'0 0.0
2018-Jan-12 07:26N 36°51' W 076°18'0 0.0
2018-Jan-12 06:53N 36°51' W 076°18'0 0.0
2018-Jan-12 06:16N 36°51' W 076°18'0 0.0
2018-Jan-12 03:53N 36°51' W 076°18'0 0.0
2018-Jan-12 02:41N 36°51' W 076°18'0 0.0
2018-Jan-12 02:08N 36°51' W 076°18'0 0.0
2018-Jan-12 01:59N 36°51' W 076°18'0 0.0
2018-Jan-12 00:37N 36°51' W 076°18'0 0.0
2018-Jan-12 00:16N 36°51' W 076°18'0 0.0
2018-Jan-11 23:02N 36°51' W 076°18'0 0.0
2018-Jan-11 22:50N 36°51' W 076°18'0 0.0
2018-Jan-11 22:20N 36°51' W 076°18'0 0.0
2018-Jan-11 21:50N 36°51' W 076°18'0 0.0
2018-Jan-11 21:25N 36°51' W 076°18'0 0.0
2018-Jan-11 19:31N 36°51' W 076°18'0 0.0
2018-Jan-11 19:25N 36°51' W 076°18'0 0.0
2018-Jan-11 18:56N 36°51' W 076°18'1 1.4
2018-Jan-11 18:29N 36°52' W 076°19'3 2.6
2018-Jan-11 17:29N 36°54' W 076°21'2 4.5
2018-Jan-11 17:00N 36°52' W 076°20'1 2.2
2018-Jan-11 16:30N 36°51' W 076°18'0 0.0
2018-Jan-11 15:51N 36°51' W 076°18'0 0.0
2018-Jan-11 15:21N 36°51' W 076°18'0 0.0
2018-Jan-11 14:57N 36°51' W 076°18'0 0.0
2018-Jan-11 14:27N 36°51' W 076°18'0 0.0
2018-Jan-11 13:57N 36°51' W 076°18'0 0.0
2018-Jan-11 13:27N 36°51' W 076°18'0 0.0
2018-Jan-11 12:57N 36°51' W 076°18'  
Track history (hours):
 
Tides and Currents Weather Stations Pressure Air Temp Water Temp Dewpoint Dewpoint Depression Visibility Wind Speed Wind Dir Waves Ship Positions

Usace Mobjack

Last reported at 2018-Jan-19 20:05 UTC. Time now 2018-Jan-21 20:27 UTC.
Position N 36°51' W 076°18'.

Length 20 m; draft 2.3 m.

Type: . MMSI: 366999273.

Date/timePositionNaut miles runAvg speedWind from/ knotsBaromVisibWave heightAir tempDewpointWater temp
2018-Jan-19 20:05N 36°51' W 076°18'0 4.8
2018-Jan-19 20:00N 36°52' W 076°19'3 2.8
2018-Jan-19 19:02N 36°54' W 076°21'0 0.5
2018-Jan-19 19:00N 36°54' W 076°21'0 0.0
2018-Jan-19 18:21N 36°54' W 076°21'3 7.6
2018-Jan-19 17:59N 36°52' W 076°19'0 0.7
2018-Jan-19 17:30N 36°51' W 076°18'0 0.0
2018-Jan-19 17:00N 36°51' W 076°18'0 0.5
2018-Jan-19 16:30N 36°51' W 076°19'1 3.0
2018-Jan-19 16:00N 36°50' W 076°18'0 0.7
2018-Jan-19 15:30N 36°50' W 076°18'1 2.2
2018-Jan-19 15:00N 36°51' W 076°18'1 1.7
2018-Jan-19 14:30N 36°51' W 076°18'0 0.0
2018-Jan-19 14:00N 36°51' W 076°18'0 0.0
2018-Jan-19 13:30N 36°51' W 076°18'0 0.0
2018-Jan-19 13:00N 36°51' W 076°18'0 0.0
2018-Jan-19 12:30N 36°51' W 076°18'  
2018-Jan-12 14:59N 36°51' W 076°18'0 0.0
2018-Jan-12 13:29N 36°51' W 076°18'0 0.0
2018-Jan-12 12:50N 36°51' W 076°18'0 0.0
2018-Jan-12 12:26N 36°51' W 076°18'0 0.0
2018-Jan-12 11:56N 36°51' W 076°18'0 0.0
2018-Jan-12 11:20N 36°51' W 076°18'0 0.0
2018-Jan-12 10:56N 36°51' W 076°18'0 0.0
2018-Jan-12 10:26N 36°51' W 076°18'0 0.0
2018-Jan-12 09:50N 36°51' W 076°18'0 0.0
2018-Jan-12 09:26N 36°51' W 076°18'0 0.0
2018-Jan-12 08:50N 36°51' W 076°18'0 0.0
2018-Jan-12 08:20N 36°51' W 076°18'0 0.0
2018-Jan-12 07:53N 36°51' W 076°18'0 0.0
2018-Jan-12 07:26N 36°51' W 076°18'0 0.0
2018-Jan-12 06:53N 36°51' W 076°18'0 0.0
2018-Jan-12 06:16N 36°51' W 076°18'0 0.0
2018-Jan-12 03:53N 36°51' W 076°18'0 0.0
2018-Jan-12 02:41N 36°51' W 076°18'0 0.0
2018-Jan-12 02:08N 36°51' W 076°18'0 0.0
2018-Jan-12 01:59N 36°51' W 076°18'0 0.0
2018-Jan-12 00:37N 36°51' W 076°18'0 0.0
2018-Jan-12 00:16N 36°51' W 076°18'0 0.0
2018-Jan-11 23:02N 36°51' W 076°18'0 0.0
2018-Jan-11 22:50N 36°51' W 076°18'0 0.0
2018-Jan-11 22:20N 36°51' W 076°18'0 0.0
2018-Jan-11 21:50N 36°51' W 076°18'0 0.0
2018-Jan-11 21:25N 36°51' W 076°18'0 0.0
2018-Jan-11 19:31N 36°51' W 076°18'0 0.0
2018-Jan-11 19:25N 36°51' W 076°18'0 0.0
2018-Jan-11 18:56N 36°51' W 076°18'1 1.4
2018-Jan-11 18:29N 36°52' W 076°19'3 2.6
2018-Jan-11 17:29N 36°54' W 076°21'2 4.5
2018-Jan-11 17:00N 36°52' W 076°20'1 2.2
2018-Jan-11 16:30N 36°51' W 076°18'0 0.0
2018-Jan-11 15:51N 36°51' W 076°18'0 0.0
2018-Jan-11 15:21N 36°51' W 076°18'0 0.0
2018-Jan-11 14:57N 36°51' W 076°18'0 0.0
2018-Jan-11 14:27N 36°51' W 076°18'0 0.0
2018-Jan-11 13:57N 36°51' W 076°18'0 0.0
2018-Jan-11 13:27N 36°51' W 076°18'0 0.0
2018-Jan-11 12:57N 36°51' W 076°18'  

Dump ship's entire track history